createdAt,value
2024-03-27T00:07:53.121Z,11.87
2024-03-27T00:17:52.254Z,11.79
2024-03-27T00:27:52.153Z,11.70
2024-03-27T00:37:51.278Z,11.65
2024-03-27T00:47:51.213Z,11.63
2024-03-27T00:57:50.220Z,11.63
2024-03-27T01:07:49.231Z,11.64
2024-03-27T01:17:48.249Z,11.61
2024-03-27T01:27:47.281Z,11.56
2024-03-27T01:37:46.263Z,11.49
2024-03-27T01:47:45.313Z,11.40
2024-03-27T01:57:44.297Z,11.32
2024-03-27T02:07:43.294Z,11.27
2024-03-27T02:17:42.344Z,11.22
2024-03-27T02:27:41.303Z,11.18
2024-03-27T02:37:40.345Z,11.17
2024-03-27T02:47:39.374Z,11.20
2024-03-27T02:57:38.367Z,11.21
2024-03-27T03:07:37.363Z,11.20
2024-03-27T03:17:36.424Z,11.17
2024-03-27T03:27:35.448Z,11.15
2024-03-27T03:37:35.381Z,11.17
2024-03-27T03:47:34.403Z,11.24
2024-03-27T03:57:33.516Z,11.33
2024-03-27T04:07:33.491Z,11.41
2024-03-27T04:17:33.464Z,11.48
2024-03-27T04:27:32.579Z,11.53
2024-03-27T04:37:32.532Z,11.58
2024-03-27T04:47:32.542Z,11.61
2024-03-27T04:57:32.629Z,11.63
2024-03-27T05:07:32.570Z,11.62
2024-03-27T05:17:32.634Z,11.65
2024-03-27T05:27:32.614Z,11.72
2024-03-27T05:37:32.621Z,11.80
2024-03-27T05:47:32.630Z,11.89
2024-03-27T05:57:31.599Z,11.99
2024-03-27T06:07:30.680Z,12.11
2024-03-27T06:17:30.626Z,12.21
2024-03-27T06:27:29.634Z,12.29
2024-03-27T06:37:28.670Z,12.34
2024-03-27T06:47:27.693Z,12.40
2024-03-27T06:57:27.692Z,12.46
2024-03-27T07:07:27.695Z,12.54
2024-03-27T07:17:27.766Z,12.64
2024-03-27T07:27:27.686Z,12.76
2024-03-27T07:37:26.719Z,12.89
2024-03-27T07:47:25.746Z,13.05
2024-03-27T07:57:24.749Z,13.24
2024-03-27T08:07:23.799Z,13.46
2024-03-27T08:17:22.828Z,13.67
2024-03-27T08:27:21.780Z,13.84
2024-03-27T08:37:21.817Z,14.01
2024-03-27T08:47:20.840Z,14.15
2024-03-27T08:57:19.877Z,14.28
2024-03-27T09:07:19.844Z,14.44
2024-03-27T09:17:18.878Z,14.64
2024-03-27T09:27:17.875Z,14.78
2024-03-27T09:37:16.865Z,14.89
2024-03-27T09:47:15.912Z,15.10
2024-03-27T09:57:17.922Z,15.35
2024-03-27T10:07:15.946Z,15.47
2024-03-27T10:17:14.976Z,15.55
2024-03-27T10:27:16.041Z,15.74
2024-03-27T10:37:14.960Z,15.87
2024-03-27T10:47:14.008Z,15.80
2024-03-27T10:57:15.052Z,15.65
2024-03-27T11:07:13.998Z,15.58
2024-03-27T11:17:13.036Z,15.52
2024-03-27T11:27:12.051Z,15.43
2024-03-27T11:37:11.037Z,15.40
2024-03-27T11:47:10.101Z,15.46
2024-03-27T11:57:09.050Z,15.61
2024-03-27T12:07:08.134Z,15.82
2024-03-27T12:17:07.141Z,15.99
2024-03-27T12:27:06.137Z,15.93
2024-03-27T12:37:05.122Z,15.67
2024-03-27T12:47:04.180Z,15.36
2024-03-27T12:57:03.186Z,15.03
2024-03-27T13:07:02.176Z,14.63
2024-03-27T13:17:01.213Z,14.23
2024-03-27T13:27:00.230Z,13.97
2024-03-27T13:36:59.206Z,13.78
2024-03-27T13:46:58.250Z,13.64
2024-03-27T13:56:57.208Z,13.51
2024-03-27T14:06:56.284Z,13.39
2024-03-27T14:16:56.264Z,13.34
2024-03-27T14:26:55.262Z,13.39
2024-03-27T14:36:55.299Z,13.61
2024-03-27T14:46:54.319Z,13.83
2024-03-27T14:56:53.343Z,13.86
2024-03-27T15:06:52.398Z,13.90
2024-03-27T15:16:52.369Z,14.05
2024-03-27T15:26:51.357Z,14.21
2024-03-27T15:36:50.377Z,14.22
2024-03-27T15:46:49.412Z,14.07
2024-03-27T15:56:48.388Z,13.84
2024-03-27T16:06:47.415Z,13.57
2024-03-27T16:16:46.433Z,13.33
2024-03-27T16:26:45.450Z,13.14
2024-03-27T16:36:44.471Z,12.97
2024-03-27T16:46:43.489Z,12.80
2024-03-27T16:56:42.470Z,12.63
2024-03-27T17:06:41.512Z,12.48
2024-03-27T17:16:40.503Z,12.36
2024-03-27T17:26:39.532Z,12.26
2024-03-27T17:36:38.537Z,12.16
2024-03-27T17:46:37.579Z,12.04
2024-03-27T17:56:36.546Z,11.91
2024-03-27T18:06:35.589Z,11.80
2024-03-27T18:16:34.589Z,11.67
2024-03-27T18:26:33.610Z,11.55
2024-03-27T18:36:32.641Z,11.44
2024-03-27T18:46:31.707Z,11.33
2024-03-27T18:56:31.646Z,11.22
2024-03-27T19:06:30.663Z,11.13
2024-03-27T19:16:31.502Z,11.06
2024-03-27T19:26:30.697Z,11.00
2024-03-27T19:36:29.704Z,10.94
2024-03-27T19:46:28.727Z,10.87
2024-03-27T19:56:27.723Z,10.82
2024-03-27T20:06:26.709Z,10.77
2024-03-27T20:16:25.768Z,10.74
2024-03-27T20:26:24.751Z,10.73
2024-03-27T20:36:23.776Z,10.71
2024-03-27T20:46:22.799Z,10.69
2024-03-27T20:56:21.785Z,10.68
2024-03-27T21:06:20.829Z,10.65
2024-03-27T21:16:19.835Z,10.63
2024-03-27T21:26:18.820Z,10.61
2024-03-27T21:36:17.873Z,10.59
2024-03-27T21:46:16.854Z,10.56
2024-03-27T21:56:15.866Z,10.53
2024-03-27T22:06:14.899Z,10.51
2024-03-27T22:16:13.918Z,10.49
2024-03-27T22:26:12.952Z,10.47
2024-03-27T22:36:11.907Z,10.45
2024-03-27T22:46:10.975Z,10.44
2024-03-27T22:56:09.948Z,10.42
2024-03-27T23:06:08.962Z,10.39
2024-03-27T23:16:07.983Z,10.37
2024-03-27T23:26:06.981Z,10.33
2024-03-27T23:36:05.981Z,10.29
2024-03-27T23:46:05.016Z,10.25
2024-03-27T23:56:04.037Z,10.20
